createdAt,value
2018-12-25T00:01:48.093Z,0.29
2018-12-25T00:04:16.991Z,0.27
2018-12-25T00:06:47.797Z,0.34
2018-12-25T00:09:16.561Z,0.48
2018-12-25T00:11:45.425Z,0.39
2018-12-25T00:14:14.993Z,0.47
2018-12-25T00:16:44.030Z,0.35
2018-12-25T00:19:12.842Z,0.18
2018-12-25T00:21:41.655Z,0.14
2018-12-25T00:24:10.463Z,0.06
2018-12-25T00:26:39.255Z,-0.02
2018-12-25T00:29:08.109Z,-0.08
2018-12-25T00:31:36.931Z,-0.17
2018-12-25T00:34:05.843Z,-0.19
2018-12-25T00:36:34.658Z,-0.15
2018-12-25T00:39:04.625Z,-0.13
2018-12-25T00:41:33.433Z,-0.09
2018-12-25T00:44:02.284Z,-0.10
2018-12-25T00:46:31.089Z,-0.13
2018-12-25T00:49:00.053Z,-0.15
2018-12-25T00:51:28.890Z,-0.24
2018-12-25T00:53:57.688Z,-0.29
2018-12-25T00:56:26.599Z,-0.40
2018-12-25T00:58:55.403Z,-0.49
2018-12-25T01:01:24.345Z,-0.56
2018-12-25T01:03:53.316Z,-0.65
2018-12-25T01:06:22.172Z,-0.62
2018-12-25T01:08:50.995Z,-0.65
2018-12-25T01:11:20.045Z,-0.63
2018-12-25T01:13:48.874Z,-0.75
2018-12-25T01:16:17.745Z,-0.82
2018-12-25T01:18:46.887Z,-0.86
2018-12-25T01:21:15.774Z,-0.90
2018-12-25T01:23:44.573Z,-0.92
2018-12-25T01:26:13.395Z,-0.82
2018-12-25T01:28:42.273Z,-0.83
2018-12-25T01:31:11.102Z,-0.80
2018-12-25T01:33:39.925Z,-0.81
2018-12-25T01:36:08.741Z,-0.69
2018-12-25T01:38:37.557Z,-0.72
2018-12-25T01:41:06.452Z,-0.84
2018-12-25T01:43:35.331Z,-0.94
2018-12-25T01:46:04.223Z,-1.02
2018-12-25T01:48:33.093Z,-1.08
2018-12-25T01:51:01.913Z,-1.17
2018-12-25T01:53:30.804Z,-1.23
2018-12-25T01:55:59.620Z,-1.32
2018-12-25T01:58:28.558Z,-1.33
2018-12-25T02:00:57.511Z,-1.39
2018-12-25T02:03:26.441Z,-1.36
2018-12-25T02:05:55.272Z,-1.35
2018-12-25T02:08:24.162Z,-1.30
2018-12-25T02:10:52.980Z,-1.29
2018-12-25T02:13:21.939Z,-1.29
2018-12-25T02:15:50.757Z,-1.23
2018-12-25T02:18:19.562Z,-1.22
2018-12-25T02:20:49.169Z,-1.17
2018-12-25T02:23:17.986Z,-1.09
2018-12-25T02:25:46.837Z,-1.07
2018-12-25T02:28:15.702Z,-1.08
2018-12-25T02:30:44.529Z,-1.15
2018-12-25T02:33:13.423Z,-1.13
2018-12-25T02:35:42.442Z,-1.12
2018-12-25T02:38:11.337Z,-1.19
2018-12-25T02:40:40.152Z,-1.24
2018-12-25T02:43:08.951Z,-1.21
2018-12-25T02:45:37.838Z,-1.26
2018-12-25T02:48:06.717Z,-1.29
2018-12-25T02:50:35.598Z,-1.21
2018-12-25T02:53:04.402Z,-1.01
2018-12-25T02:55:33.342Z,-0.95
2018-12-25T02:58:02.158Z,-1.01
2018-12-25T03:00:31.034Z,-1.24
2018-12-25T03:02:59.942Z,-1.27
2018-12-25T03:05:28.968Z,-1.28
2018-12-25T03:07:57.788Z,-1.27
2018-12-25T03:10:26.588Z,-1.29
2018-12-25T03:12:55.488Z,-1.43
2018-12-25T03:15:24.278Z,-1.44
2018-12-25T03:17:53.122Z,-1.43
2018-12-25T03:20:22.004Z,-1.30
2018-12-25T03:22:51.408Z,-1.25
2018-12-25T03:25:20.301Z,-1.40
2018-12-25T03:27:49.150Z,-1.53
2018-12-25T03:30:17.958Z,-1.57
2018-12-25T03:32:46.852Z,-1.56
2018-12-25T03:35:15.736Z,-1.39
2018-12-25T03:37:44.570Z,-1.29
2018-12-25T03:40:13.450Z,-1.21
2018-12-25T03:42:42.283Z,-1.27
2018-12-25T03:45:11.070Z,-1.43
2018-12-25T03:47:39.884Z,-1.45
2018-12-25T03:50:10.951Z,-1.54
2018-12-25T03:52:39.630Z,-1.57
2018-12-25T03:55:08.436Z,-1.48
2018-12-25T03:57:37.424Z,-1.42
2018-12-25T04:00:06.800Z,-1.50
2018-12-25T04:02:35.732Z,-1.58
2018-12-25T04:05:04.869Z,-1.61
2018-12-25T04:07:33.701Z,-1.56
2018-12-25T04:10:02.596Z,-1.58
2018-12-25T04:12:31.409Z,-1.50
2018-12-25T04:15:00.361Z,-1.61
2018-12-25T04:17:29.395Z,-1.72
2018-12-25T04:19:58.268Z,-1.55
2018-12-25T04:22:27.246Z,-1.55
2018-12-25T04:24:56.037Z,-1.51
2018-12-25T04:27:24.855Z,-1.45
2018-12-25T04:29:53.894Z,-1.55
2018-12-25T04:32:22.783Z,-1.70
2018-12-25T04:34:51.588Z,-1.77
2018-12-25T04:37:20.438Z,-1.84
2018-12-25T04:39:49.251Z,-1.81
2018-12-25T04:42:18.082Z,-1.81
2018-12-25T04:44:46.991Z,-1.83
2018-12-25T04:47:15.815Z,-1.77
2018-12-25T04:49:44.685Z,-1.60
2018-12-25T04:52:13.445Z,-1.64
2018-12-25T04:54:42.349Z,-1.68
2018-12-25T04:57:11.155Z,-1.72
2018-12-25T04:59:39.997Z,-1.61
2018-12-25T05:02:08.939Z,-1.56
2018-12-25T05:04:37.772Z,-1.68
2018-12-25T05:07:06.682Z,-1.65
2018-12-25T05:09:35.497Z,-1.58
2018-12-25T05:12:04.392Z,-1.83
2018-12-25T05:14:33.208Z,-2.16
2018-12-25T05:17:02.000Z,-2.10
2018-12-25T05:19:30.824Z,-2.01
2018-12-25T05:21:59.635Z,-2.03
2018-12-25T05:24:28.510Z,-2.13
2018-12-25T05:26:57.311Z,-2.30
2018-12-25T05:29:26.145Z,-2.35
2018-12-25T05:31:55.025Z,-2.32
2018-12-25T05:34:23.864Z,-2.22
2018-12-25T05:36:52.744Z,-2.31
2018-12-25T05:39:21.607Z,-2.33
2018-12-25T05:41:50.425Z,-2.32
2018-12-25T05:44:19.261Z,-2.24
2018-12-25T05:46:48.142Z,-2.18
2018-12-25T05:49:16.957Z,-2.10
2018-12-25T05:51:45.767Z,-2.04
2018-12-25T05:54:14.601Z,-1.91
2018-12-25T05:56:43.398Z,-1.89
2018-12-25T05:59:12.281Z,-1.88
2018-12-25T06:01:41.108Z,-1.91
2018-12-25T06:04:10.074Z,-1.90
2018-12-25T06:06:39.004Z,-1.95
2018-12-25T06:09:08.093Z,-2.08
2018-12-25T06:11:36.917Z,-2.00
2018-12-25T06:14:05.722Z,-2.15
2018-12-25T06:16:34.539Z,-2.10
2018-12-25T06:19:03.370Z,-2.06
2018-12-25T06:21:32.358Z,-2.27
2018-12-25T06:24:01.172Z,-2.45
2018-12-25T06:26:30.078Z,-2.49
2018-12-25T06:28:58.913Z,-2.61
2018-12-25T06:31:28.445Z,-2.61
2018-12-25T06:33:57.232Z,-2.66
2018-12-25T06:36:26.139Z,-2.72
2018-12-25T06:38:55.013Z,-2.76
2018-12-25T06:41:23.820Z,-2.75
2018-12-25T06:43:52.791Z,-2.83
2018-12-25T06:46:21.681Z,-2.88
2018-12-25T06:48:50.615Z,-2.84
2018-12-25T06:51:19.438Z,-2.53
2018-12-25T06:53:48.312Z,-2.30
2018-12-25T06:56:17.151Z,-2.28
2018-12-25T06:58:45.954Z,-2.47
2018-12-25T07:01:14.791Z,-2.76
2018-12-25T07:03:43.660Z,-2.73
2018-12-25T07:06:12.631Z,-2.77
2018-12-25T07:08:41.435Z,-2.74
2018-12-25T07:11:10.261Z,-2.73
2018-12-25T07:13:39.273Z,-2.72
2018-12-25T07:16:08.095Z,-2.70
2018-12-25T07:18:37.199Z,-2.98
2018-12-25T07:21:12.161Z,-3.02
2018-12-25T07:23:36.562Z,-3.19
2018-12-25T07:26:05.445Z,-3.27
2018-12-25T07:28:34.243Z,-3.29
2018-12-25T07:31:03.124Z,-3.32
2018-12-25T07:33:32.017Z,-3.34
2018-12-25T07:36:01.258Z,-3.35
2018-12-25T07:38:30.238Z,-3.32
2018-12-25T07:40:59.054Z,-3.21
2018-12-25T07:43:27.861Z,-3.09
2018-12-25T07:45:56.683Z,-3.11
2018-12-25T07:48:25.498Z,-3.14
2018-12-25T07:50:54.617Z,-3.14
2018-12-25T07:53:23.586Z,-3.06
2018-12-25T07:55:52.419Z,-3.01
2018-12-25T07:58:21.222Z,-2.74
2018-12-25T08:00:50.106Z,-2.65
2018-12-25T08:03:18.921Z,-2.72
2018-12-25T08:05:47.783Z,-2.59
2018-12-25T08:08:16.601Z,-2.51
2018-12-25T08:10:45.550Z,-2.43
2018-12-25T08:13:14.562Z,-2.38
2018-12-25T08:15:43.366Z,-2.47
2018-12-25T08:18:12.193Z,-2.54
2018-12-25T08:20:40.998Z,-2.57
2018-12-25T08:23:09.892Z,-2.59
2018-12-25T08:25:38.793Z,-2.65
2018-12-25T08:28:07.634Z,-2.69
2018-12-25T08:30:36.517Z,-2.59
2018-12-25T08:33:05.400Z,-2.37
2018-12-25T08:35:34.244Z,-2.35
2018-12-25T08:38:03.967Z,-2.14
2018-12-25T08:40:32.779Z,-2.03
2018-12-25T08:43:01.679Z,-1.83
2018-12-25T08:45:30.555Z,-1.67
2018-12-25T08:47:59.738Z,-1.63
2018-12-25T08:50:28.649Z,-1.62
2018-12-25T08:52:57.535Z,-1.74
2018-12-25T08:55:26.341Z,-1.91
2018-12-25T08:57:55.199Z,-2.14
2018-12-25T09:00:24.340Z,-2.14
2018-12-25T09:02:53.178Z,-2.15
2018-12-25T09:05:21.980Z,-2.14
2018-12-25T09:07:50.807Z,-2.06
2018-12-25T09:10:19.615Z,-1.76
2018-12-25T09:12:48.446Z,-1.52
2018-12-25T09:15:17.273Z,-1.28
2018-12-25T09:17:46.186Z,-1.07
2018-12-25T09:20:15.178Z,-1.08
2018-12-25T09:22:43.991Z,-1.02
2018-12-25T09:25:12.801Z,-1.52
2018-12-25T09:27:41.656Z,-1.91
2018-12-25T09:30:10.633Z,-1.90
2018-12-25T09:32:39.512Z,-2.01
2018-12-25T09:35:08.414Z,-1.98
2018-12-25T09:37:37.333Z,-2.09
2018-12-25T09:40:07.319Z,-1.97
2018-12-25T09:42:36.802Z,-1.91
2018-12-25T09:45:06.039Z,-2.02
2018-12-25T09:47:34.853Z,-2.08
2018-12-25T09:50:03.747Z,-2.14
2018-12-25T09:52:32.554Z,-2.10
2018-12-25T09:55:01.463Z,-2.03
2018-12-25T09:57:30.336Z,-1.99
2018-12-25T09:59:59.189Z,-1.94
2018-12-25T10:02:28.030Z,-1.80
2018-12-25T10:04:56.858Z,-1.56
2018-12-25T10:07:25.670Z,-1.17
2018-12-25T10:09:54.506Z,-0.86
2018-12-25T10:12:23.342Z,-0.62
2018-12-25T10:14:52.166Z,-1.08
2018-12-25T10:17:20.988Z,-1.15
2018-12-25T10:19:49.889Z,-1.21
2018-12-25T10:22:18.715Z,-1.09
2018-12-25T10:24:47.603Z,-1.12
2018-12-25T10:27:16.501Z,-0.86
2018-12-25T10:29:45.495Z,-0.80
2018-12-25T10:32:14.317Z,-0.50
2018-12-25T10:34:43.151Z,-0.60
2018-12-25T10:37:12.000Z,-0.52
2018-12-25T10:39:40.937Z,-0.52
2018-12-25T10:42:09.781Z,-0.34
2018-12-25T10:44:38.682Z,-0.31
2018-12-25T10:47:07.576Z,-0.22
2018-12-25T10:49:36.497Z,0.02
2018-12-25T10:52:11.624Z,-0.08
2018-12-25T10:54:36.050Z,0.21
2018-12-25T10:57:04.930Z,0.00
2018-12-25T10:59:33.822Z,0.16
2018-12-25T11:02:02.658Z,0.42
2018-12-25T11:04:32.575Z,0.52
2018-12-25T11:07:01.499Z,0.31
2018-12-25T11:09:30.412Z,-0.05
2018-12-25T11:11:59.308Z,-0.03
2018-12-25T11:14:28.119Z,0.36
2018-12-25T11:16:57.092Z,0.67
2018-12-25T11:19:25.976Z,0.56
2018-12-25T11:21:54.799Z,0.70
2018-12-25T11:24:23.614Z,0.81
2018-12-25T11:26:52.428Z,0.92
2018-12-25T11:29:21.235Z,0.48
2018-12-25T11:31:50.215Z,0.62
2018-12-25T11:34:19.035Z,0.79
2018-12-25T11:36:47.864Z,0.86
2018-12-25T11:39:16.860Z,0.43
2018-12-25T11:41:45.709Z,0.32
2018-12-25T11:44:14.529Z,0.67
2018-12-25T11:46:43.431Z,0.93
2018-12-25T11:49:12.367Z,1.08
2018-12-25T11:51:41.258Z,1.30
2018-12-25T11:54:10.345Z,1.35
2018-12-25T11:56:39.148Z,1.48
2018-12-25T11:59:08.034Z,1.40
2018-12-25T12:01:36.936Z,1.09
2018-12-25T12:04:05.744Z,0.61
2018-12-25T12:06:34.571Z,0.37
2018-12-25T12:09:04.633Z,0.29
2018-12-25T12:11:33.462Z,0.06
2018-12-25T12:14:02.371Z,-0.04
2018-12-25T12:16:31.184Z,0.03
2018-12-25T12:18:59.986Z,0.17
2018-12-25T12:21:28.826Z,0.20
2018-12-25T12:23:57.647Z,0.19
2018-12-25T12:26:26.624Z,0.33
2018-12-25T12:28:55.514Z,0.50
2018-12-25T12:31:24.342Z,0.45
2018-12-25T12:33:53.174Z,0.58
2018-12-25T12:36:21.984Z,0.69
2018-12-25T12:38:50.816Z,0.82
2018-12-25T12:41:19.615Z,0.87
2018-12-25T12:43:48.517Z,0.73
2018-12-25T12:46:17.526Z,0.68
2018-12-25T12:48:46.340Z,0.69
2018-12-25T12:51:15.240Z,0.60
2018-12-25T12:53:44.160Z,0.65
2018-12-25T12:56:13.003Z,0.62
2018-12-25T12:58:42.061Z,0.65
2018-12-25T13:01:10.942Z,0.56
2018-12-25T13:03:39.779Z,0.66
2018-12-25T13:06:08.603Z,0.67
2018-12-25T13:08:37.438Z,0.77
2018-12-25T13:11:06.240Z,0.80
2018-12-25T13:13:35.354Z,0.90
2018-12-25T13:16:04.271Z,0.96
2018-12-25T13:18:33.151Z,1.14
2018-12-25T13:21:02.009Z,1.24
2018-12-25T13:23:30.858Z,1.30
2018-12-25T13:25:59.794Z,1.38
2018-12-25T13:28:28.706Z,1.41
2018-12-25T13:30:57.579Z,1.62
2018-12-25T13:33:26.392Z,1.83
2018-12-25T13:35:55.229Z,2.01
2018-12-25T13:38:24.057Z,2.12
2018-12-25T13:40:52.947Z,2.25
2018-12-25T13:43:21.808Z,2.19
2018-12-25T13:45:50.623Z,2.25
2018-12-25T13:48:19.460Z,2.28
2018-12-25T13:50:48.256Z,2.38
2018-12-25T13:53:17.124Z,2.53
2018-12-25T13:55:46.036Z,2.54
2018-12-25T13:58:14.847Z,2.49
2018-12-25T14:00:43.862Z,2.42
2018-12-25T14:03:12.731Z,2.37
2018-12-25T14:05:41.573Z,2.04
2018-12-25T14:08:10.461Z,2.04
2018-12-25T14:10:39.349Z,2.08
2018-12-25T14:13:08.225Z,2.03
2018-12-25T14:15:37.047Z,1.93
2018-12-25T14:18:05.852Z,1.88
2018-12-25T14:20:34.803Z,1.91
2018-12-25T14:23:11.000Z,1.90
2018-12-25T14:25:34.513Z,1.93
2018-12-25T14:28:03.419Z,1.94
2018-12-25T14:30:32.233Z,1.67
2018-12-25T14:33:01.091Z,1.82
2018-12-25T14:35:29.977Z,1.72
2018-12-25T14:37:58.861Z,1.77
2018-12-25T14:40:27.709Z,1.71
2018-12-25T14:42:56.584Z,1.60
2018-12-25T14:45:25.977Z,1.48
2018-12-25T14:47:55.266Z,1.55
2018-12-25T14:50:24.449Z,1.48
2018-12-25T14:52:53.331Z,1.29
2018-12-25T14:55:22.216Z,0.94
2018-12-25T14:57:51.024Z,0.97
2018-12-25T15:00:19.928Z,1.00
2018-12-25T15:02:48.771Z,1.06
2018-12-25T15:05:17.679Z,1.05
2018-12-25T15:07:46.486Z,0.96
2018-12-25T15:10:15.701Z,0.91
2018-12-25T15:12:44.525Z,0.96
2018-12-25T15:15:13.397Z,0.99
2018-12-25T15:17:42.188Z,0.76
2018-12-25T15:20:11.011Z,0.72
2018-12-25T15:22:40.731Z,0.44
2018-12-25T15:25:09.646Z,0.37
2018-12-25T15:27:38.523Z,0.30
2018-12-25T15:30:07.864Z,0.31
2018-12-25T15:32:36.664Z,0.58
2018-12-25T15:35:09.008Z,0.53
2018-12-25T15:37:37.815Z,0.21
2018-12-25T15:40:08.147Z,0.25
2018-12-25T15:42:37.056Z,0.47
2018-12-25T15:45:07.180Z,0.35
2018-12-25T15:47:36.053Z,0.15
2018-12-25T15:50:05.817Z,0.18
2018-12-25T15:52:34.717Z,0.23
2018-12-25T15:55:03.681Z,0.21
2018-12-25T15:57:32.567Z,0.05
2018-12-25T16:00:01.412Z,-0.35
2018-12-25T16:02:30.486Z,-0.44
2018-12-25T16:04:59.447Z,-0.41
2018-12-25T16:07:28.261Z,-0.22
2018-12-25T16:09:57.087Z,-0.32
2018-12-25T16:12:25.917Z,-0.40
2018-12-25T16:14:54.717Z,-0.39
2018-12-25T16:17:23.536Z,-0.29
2018-12-25T16:19:52.339Z,-0.27
2018-12-25T16:22:21.251Z,-0.34
2018-12-25T16:24:50.133Z,-0.34
2018-12-25T16:27:19.033Z,-0.56
2018-12-25T16:29:48.407Z,-0.63
2018-12-25T16:32:17.226Z,-0.60
2018-12-25T16:34:46.048Z,-0.55
2018-12-25T16:37:14.995Z,-0.59
2018-12-25T16:39:43.777Z,-0.47
2018-12-25T16:42:12.747Z,-0.57
2018-12-25T16:44:41.568Z,-0.48
2018-12-25T16:47:10.401Z,-0.56
2018-12-25T16:49:39.210Z,-0.72
2018-12-25T16:52:08.027Z,-0.84
2018-12-25T16:54:36.922Z,-0.82
2018-12-25T16:57:05.736Z,-0.77
2018-12-25T16:59:34.558Z,-0.56
2018-12-25T17:02:03.467Z,-0.60
2018-12-25T17:04:32.341Z,-0.78
2018-12-25T17:07:01.238Z,-0.78
2018-12-25T17:09:30.421Z,-0.61
2018-12-25T17:11:59.504Z,-0.80
2018-12-25T17:14:28.555Z,-0.79
2018-12-25T17:16:57.562Z,-0.86
2018-12-25T17:19:26.437Z,-0.92
2018-12-25T17:21:55.266Z,-0.87
2018-12-25T17:24:24.079Z,-0.90
2018-12-25T17:26:52.909Z,-0.97
2018-12-25T17:29:21.718Z,-0.97
2018-12-25T17:31:50.544Z,-0.82
2018-12-25T17:34:19.359Z,-0.66
2018-12-25T17:36:48.250Z,-0.81
2018-12-25T17:39:17.064Z,-0.95
2018-12-25T17:41:45.906Z,-1.01
2018-12-25T17:44:14.796Z,-1.05
2018-12-25T17:46:43.634Z,-1.18
2018-12-25T17:49:12.480Z,-1.08
2018-12-25T17:51:41.340Z,-1.17
2018-12-25T17:54:10.900Z,-1.07
2018-12-25T17:56:40.078Z,-1.20
2018-12-25T17:59:09.026Z,-1.21
2018-12-25T18:01:37.841Z,-1.19
2018-12-25T18:04:06.818Z,-1.22
2018-12-25T18:06:35.651Z,-1.26
2018-12-25T18:09:05.896Z,-1.31
2018-12-25T18:11:34.926Z,-1.38
2018-12-25T18:14:04.019Z,-1.19
2018-12-25T18:16:32.825Z,-1.23
2018-12-25T18:19:01.637Z,-1.19
2018-12-25T18:21:30.674Z,-1.01
2018-12-25T18:23:59.599Z,-1.04
2018-12-25T18:26:28.602Z,-1.06
2018-12-25T18:28:57.487Z,-1.24
2018-12-25T18:31:26.294Z,-1.29
2018-12-25T18:33:55.154Z,-1.39
2018-12-25T18:36:24.037Z,-1.45
2018-12-25T18:38:52.895Z,-1.47
2018-12-25T18:41:21.722Z,-1.50
2018-12-25T18:43:50.683Z,-1.61
2018-12-25T18:46:19.567Z,-1.60
2018-12-25T18:48:48.534Z,-1.61
2018-12-25T18:51:17.353Z,-1.54
2018-12-25T18:53:46.275Z,-1.18
2018-12-25T18:56:15.099Z,-1.03
2018-12-25T18:58:43.937Z,-1.19
2018-12-25T19:01:12.746Z,-1.32
2018-12-25T19:03:41.577Z,-1.38
2018-12-25T19:06:10.403Z,-1.40
2018-12-25T19:08:39.426Z,-1.15
2018-12-25T19:11:08.282Z,-1.20
2018-12-25T19:13:37.174Z,-1.20
2018-12-25T19:16:06.672Z,-1.21
2018-12-25T19:18:35.564Z,-1.21
2018-12-25T19:21:04.385Z,-1.41
2018-12-25T19:23:33.508Z,-1.40
2018-12-25T19:26:02.400Z,-1.48
2018-12-25T19:28:31.440Z,-1.47
2018-12-25T19:31:00.283Z,-1.49
2018-12-25T19:33:29.152Z,-1.47
2018-12-25T19:35:58.028Z,-1.44
2018-12-25T19:38:26.948Z,-1.47
2018-12-25T19:40:55.833Z,-1.53
2018-12-25T19:43:25.565Z,-1.47
2018-12-25T19:45:55.879Z,-1.40
2018-12-25T19:48:25.661Z,-1.35
2018-12-25T19:50:54.636Z,-1.47
2018-12-25T19:53:23.536Z,-1.39
2018-12-25T19:55:52.507Z,-1.34
2018-12-25T19:58:21.487Z,-1.37
2018-12-25T20:00:50.482Z,-1.36
2018-12-25T20:03:24.352Z,-1.42
2018-12-25T20:06:29.325Z,-1.47
2018-12-25T20:09:34.442Z,-1.49
2018-12-25T20:12:46.105Z,-1.47
2018-12-25T20:15:41.541Z,-1.33
2018-12-25T20:18:58.831Z,-1.49
2018-12-25T20:22:16.751Z,-1.46
2018-12-25T20:25:08.959Z,-1.34
2018-12-25T20:28:01.126Z,-1.41
2018-12-25T20:30:58.350Z,-1.34
2018-12-25T20:34:11.429Z,-1.26
2018-12-25T20:37:32.319Z,-1.37
2018-12-25T20:40:42.163Z,-1.05
2018-12-25T20:43:55.043Z,-0.90
2018-12-25T20:46:54.444Z,-0.86
2018-12-25T20:50:09.957Z,-0.83
2018-12-25T20:53:22.152Z,-0.66
2018-12-25T20:56:18.629Z,-0.48
2018-12-25T20:59:26.841Z,-0.30
2018-12-25T21:02:27.517Z,-0.40
2018-12-25T21:05:30.435Z,-0.30
2018-12-25T21:08:48.507Z,-0.18
2018-12-25T21:11:56.040Z,-0.16
2018-12-25T21:15:17.576Z,-0.30
2018-12-25T21:18:37.171Z,-0.27
2018-12-25T21:21:57.566Z,-0.29
2018-12-25T21:25:09.590Z,-0.25
2018-12-25T21:27:32.445Z,-0.24
2018-12-25T21:30:06.913Z,-0.19
2018-12-25T21:32:39.103Z,-0.11
2018-12-25T21:35:12.190Z,-0.08
2018-12-25T21:37:41.373Z,-0.12
2018-12-25T21:40:10.339Z,-0.20
2018-12-25T21:42:39.437Z,-0.55
2018-12-25T21:45:08.899Z,-0.66
2018-12-25T21:47:37.902Z,-0.73
2018-12-25T21:50:07.776Z,-0.79
2018-12-25T21:52:36.749Z,-0.76
2018-12-25T21:55:05.734Z,-0.84
2018-12-25T21:57:35.613Z,-0.91
2018-12-25T22:02:42.093Z,-0.98
2018-12-25T22:05:11.456Z,-1.00
2018-12-25T22:07:40.431Z,-0.91
2018-12-25T22:10:09.672Z,-0.86
2018-12-25T22:12:38.673Z,-0.84
2018-12-25T22:15:09.078Z,-0.79
2018-12-25T22:17:38.007Z,-0.78
2018-12-25T22:20:26.453Z,-0.69
2018-12-25T22:22:55.350Z,-0.58
2018-12-25T22:25:27.323Z,-0.45
2018-12-25T22:27:55.268Z,-0.28
2018-12-25T22:30:24.157Z,-0.25
2018-12-25T22:32:53.051Z,-0.37
2018-12-25T22:35:22.159Z,-0.36
2018-12-25T22:37:50.985Z,-0.34
2018-12-25T22:40:19.877Z,-0.40
2018-12-25T22:42:48.774Z,-0.49
2018-12-25T22:45:17.660Z,-0.39
2018-12-25T22:47:46.453Z,0.06
2018-12-25T22:50:15.432Z,-0.06
2018-12-25T22:52:44.243Z,-0.03
2018-12-25T22:55:13.360Z,-0.05
2018-12-25T22:57:42.173Z,-0.20
2018-12-25T23:00:13.188Z,-0.38
2018-12-25T23:02:42.307Z,-0.42
2018-12-25T23:05:11.147Z,-0.48
2018-12-25T23:07:39.995Z,-0.52
2018-12-25T23:10:09.505Z,-0.56
2018-12-25T23:12:38.492Z,-0.56
2018-12-25T23:15:08.662Z,-0.52
2018-12-25T23:17:37.785Z,-0.56
2018-12-25T23:20:06.954Z,-0.59
2018-12-25T23:22:35.878Z,-0.79
2018-12-25T23:25:04.985Z,-0.90
2018-12-25T23:27:34.476Z,-0.79
2018-12-25T23:30:03.452Z,-0.81
2018-12-25T23:32:32.262Z,-0.87
2018-12-25T23:35:01.392Z,-0.80
2018-12-25T23:37:30.228Z,-0.87
2018-12-25T23:39:59.281Z,-0.99
2018-12-25T23:42:28.142Z,-0.98
2018-12-25T23:44:56.969Z,-1.03
2018-12-25T23:47:25.855Z,-1.07
2018-12-25T23:49:54.706Z,-1.14
2018-12-25T23:52:23.527Z,-1.17
2018-12-25T23:54:52.356Z,-1.11
2018-12-25T23:57:21.579Z,-1.04
2018-12-25T23:59:50.462Z,-0.98
